createdAt,value
2019-05-22T00:00:49.241Z,4.85
2019-05-22T00:03:27.404Z,5.65
2019-05-22T00:05:58.400Z,6.08
2019-05-22T00:08:30.157Z,6.22
2019-05-22T00:11:02.282Z,5.65
2019-05-22T00:13:35.665Z,6.00
2019-05-22T00:16:08.548Z,9.83
2019-05-22T00:18:39.922Z,4.92
2019-05-22T00:21:10.166Z,7.05
2019-05-22T00:23:42.534Z,5.15
2019-05-22T00:26:15.267Z,9.53
2019-05-22T00:28:47.848Z,6.42
2019-05-22T00:31:18.152Z,8.18
2019-05-22T00:33:49.234Z,4.70
2019-05-22T00:36:20.743Z,7.47
2019-05-22T00:38:51.170Z,4.55
2019-05-22T00:41:24.050Z,7.28
2019-05-22T00:43:56.867Z,7.83
2019-05-22T00:46:28.417Z,4.65
2019-05-22T00:48:59.910Z,4.97
2019-05-22T00:51:35.786Z,5.00
2019-05-22T00:54:25.887Z,4.40
2019-05-22T00:56:57.751Z,4.25
2019-05-22T00:59:36.372Z,7.33
2019-05-22T01:02:08.235Z,7.83
2019-05-22T01:04:42.955Z,5.03
2019-05-22T01:07:17.760Z,5.75
2019-05-22T01:09:48.931Z,7.22
2019-05-22T01:12:29.855Z,6.85
2019-05-22T01:15:05.536Z,7.08
2019-05-22T01:17:38.421Z,6.85
2019-05-22T01:20:12.825Z,6.22
2019-05-22T01:25:16.440Z,4.90
2019-05-22T01:27:48.800Z,5.50
2019-05-22T01:30:37.029Z,7.95
2019-05-22T01:33:14.132Z,8.00
2019-05-22T01:35:50.298Z,5.62
2019-05-22T01:38:23.561Z,7.60
2019-05-22T01:40:56.275Z,10.35
2019-05-22T01:43:28.136Z,7.87
2019-05-22T01:46:03.497Z,5.20
2019-05-22T01:48:40.307Z,5.72
2019-05-22T01:51:11.507Z,6.50
2019-05-22T01:53:44.338Z,7.53
2019-05-22T01:56:17.217Z,5.75
2019-05-22T01:58:50.072Z,6.45
2019-05-22T02:01:22.202Z,7.47
2019-05-22T02:03:55.413Z,8.38
2019-05-22T02:06:26.897Z,6.95
2019-05-22T02:09:31.357Z,5.33
2019-05-22T02:12:09.005Z,9.40
2019-05-22T02:14:42.625Z,5.50
2019-05-22T02:17:13.331Z,7.40
2019-05-22T02:19:46.291Z,8.95
2019-05-22T02:22:17.413Z,8.03
2019-05-22T02:24:51.921Z,7.72
2019-05-22T02:27:24.282Z,6.60
2019-05-22T02:29:55.611Z,6.33
2019-05-22T02:32:27.764Z,5.97
2019-05-22T02:35:00.171Z,5.47
2019-05-22T02:37:32.877Z,9.05
2019-05-22T02:40:04.817Z,5.50
2019-05-22T02:42:36.950Z,7.92
2019-05-22T02:45:10.779Z,7.97
2019-05-22T02:47:43.019Z,5.67
2019-05-22T02:50:16.969Z,7.22
2019-05-22T02:52:47.921Z,8.98
2019-05-22T02:55:19.149Z,4.37
2019-05-22T02:57:50.043Z,4.37
2019-05-22T03:00:22.641Z,3.83
2019-05-22T03:02:57.538Z,6.47
2019-05-22T03:05:28.327Z,4.60
2019-05-22T03:08:00.318Z,4.12
2019-05-22T03:10:32.818Z,6.78
2019-05-22T03:13:04.456Z,4.28
2019-05-22T03:15:35.242Z,5.30
2019-05-22T03:18:08.943Z,4.17
2019-05-22T03:20:40.321Z,17.00
2019-05-22T03:23:36.519Z,8.78
2019-05-22T03:26:10.811Z,9.28
2019-05-22T03:28:42.305Z,5.20
2019-05-22T03:31:13.072Z,3.47
2019-05-22T03:33:44.457Z,5.72
2019-05-22T03:36:17.238Z,3.72
2019-05-22T03:38:48.906Z,6.00
2019-05-22T03:41:19.609Z,6.40
2019-05-22T03:43:51.135Z,4.67
2019-05-22T03:46:26.126Z,4.15
2019-05-22T03:48:57.594Z,7.62
2019-05-22T03:51:28.192Z,8.38
2019-05-22T03:53:58.473Z,14.68
2019-05-22T03:56:30.034Z,5.62
2019-05-22T03:59:02.648Z,6.15
2019-05-22T04:01:34.553Z,11.68
2019-05-22T04:04:07.555Z,11.57
2019-05-22T04:06:40.267Z,13.25
2019-05-22T04:09:19.847Z,4.65
2019-05-22T04:11:50.597Z,7.50
2019-05-22T04:14:22.109Z,3.25
2019-05-22T04:16:52.838Z,10.15
2019-05-22T04:19:23.933Z,5.22
2019-05-22T04:21:55.255Z,3.12
2019-05-22T04:24:26.250Z,9.55
2019-05-22T04:26:57.402Z,7.67
2019-05-22T04:29:28.432Z,7.70
2019-05-22T04:32:07.048Z,6.97
2019-05-22T04:34:37.606Z,2.95
2019-05-22T04:37:10.647Z,3.87
2019-05-22T04:39:41.629Z,5.70
2019-05-22T04:42:12.714Z,4.20
2019-05-22T04:45:03.401Z,5.12
2019-05-22T04:47:35.551Z,8.35
2019-05-22T04:50:10.735Z,3.70
2019-05-22T04:52:42.274Z,5.05
2019-05-22T04:55:13.599Z,11.95
2019-05-22T04:57:44.588Z,14.63
2019-05-22T05:00:16.614Z,16.75
2019-05-22T05:02:47.635Z,7.80
2019-05-22T05:05:19.396Z,5.53
2019-05-22T05:07:52.314Z,14.55
2019-05-22T05:10:24.424Z,5.87
2019-05-22T05:12:57.760Z,5.42
2019-05-22T05:15:28.010Z,10.65
2019-05-22T05:17:58.412Z,6.85
2019-05-22T05:20:29.068Z,3.55
2019-05-22T05:22:59.974Z,3.35
2019-05-22T05:25:31.247Z,6.42
2019-05-22T05:28:02.955Z,7.72
2019-05-22T05:30:34.297Z,5.55
2019-05-22T05:33:05.618Z,3.37
2019-05-22T05:35:37.411Z,5.03
2019-05-22T05:38:08.380Z,10.15
2019-05-22T05:40:43.074Z,12.25
2019-05-22T05:43:16.511Z,13.40
2019-05-22T05:45:50.792Z,5.33
2019-05-22T05:48:22.930Z,12.75
2019-05-22T05:51:08.414Z,9.93
2019-05-22T05:54:03.151Z,7.53
2019-05-22T05:56:37.168Z,5.67
2019-05-22T05:59:09.446Z,59.20
2019-05-22T06:01:42.130Z,7.60
2019-05-22T06:04:13.400Z,6.47
2019-05-22T06:06:51.980Z,4.87
2019-05-22T06:09:24.913Z,5.00
2019-05-22T06:11:59.624Z,6.25
2019-05-22T06:14:32.283Z,11.83
2019-05-22T06:17:36.072Z,7.75
2019-05-22T06:20:12.414Z,6.15
2019-05-22T06:22:45.177Z,3.47
2019-05-22T06:25:17.570Z,6.33
2019-05-22T06:27:52.684Z,7.17
2019-05-22T06:30:41.187Z,11.75
2019-05-22T06:33:26.155Z,20.45
2019-05-22T06:35:57.115Z,5.42
2019-05-22T06:38:50.088Z,3.40
2019-05-22T06:41:23.174Z,4.95
2019-05-22T06:44:27.403Z,9.70
2019-05-22T06:46:58.745Z,13.05
2019-05-22T06:49:35.048Z,6.87
2019-05-22T06:52:07.191Z,4.50
2019-05-22T06:54:38.813Z,12.85
2019-05-22T06:57:12.427Z,5.85
2019-05-22T06:59:43.503Z,8.53
2019-05-22T07:02:17.263Z,8.23
2019-05-22T07:04:48.838Z,11.28
2019-05-22T07:07:21.568Z,6.37
2019-05-22T07:09:53.003Z,12.23
2019-05-22T07:12:24.974Z,13.10
2019-05-22T07:15:07.621Z,5.03
2019-05-22T07:17:40.611Z,4.92
2019-05-22T07:20:13.156Z,8.48
2019-05-22T07:22:45.534Z,9.65
2019-05-22T07:25:16.323Z,5.33
2019-05-22T07:27:46.787Z,12.93
2019-05-22T07:30:18.040Z,2.10
2019-05-22T07:32:48.525Z,6.65
2019-05-22T07:35:19.364Z,2.22
2019-05-22T07:37:50.953Z,3.52
2019-05-22T07:40:22.806Z,16.07
2019-05-22T07:42:54.447Z,10.40
2019-05-22T07:45:29.295Z,13.75
2019-05-22T07:48:01.693Z,9.38
2019-05-22T07:50:37.520Z,2.65
2019-05-22T07:53:09.774Z,5.00
2019-05-22T07:55:41.537Z,4.20
2019-05-22T07:58:17.166Z,3.95
2019-05-22T08:00:55.263Z,7.03
2019-05-22T08:03:26.316Z,4.65
2019-05-22T08:05:58.771Z,4.12
2019-05-22T08:08:33.233Z,12.90
2019-05-22T08:11:05.822Z,3.92
2019-05-22T08:13:37.962Z,6.20
2019-05-22T08:16:09.893Z,4.72
2019-05-22T08:18:40.784Z,7.00
2019-05-22T08:21:12.265Z,6.65
2019-05-22T08:23:42.993Z,10.13
2019-05-22T08:26:15.880Z,2.85
2019-05-22T08:28:46.950Z,5.97
2019-05-22T08:31:21.305Z,3.75
2019-05-22T08:33:53.196Z,3.17
2019-05-22T08:36:24.426Z,2.98
2019-05-22T08:38:55.094Z,7.50
2019-05-22T08:41:29.042Z,4.72
2019-05-22T08:44:15.219Z,7.58
2019-05-22T08:46:34.085Z,3.55
2019-05-22T08:49:07.326Z,2.47
2019-05-22T08:51:38.901Z,6.85
2019-05-22T08:54:09.931Z,5.72
2019-05-22T08:56:44.999Z,2.90
2019-05-22T08:59:19.902Z,3.17
2019-05-22T09:01:49.536Z,5.10
2019-05-22T09:04:21.240Z,5.42
2019-05-22T09:06:52.231Z,5.12
2019-05-22T09:09:23.554Z,7.65
2019-05-22T09:11:54.175Z,6.28
2019-05-22T09:14:24.816Z,7.70
2019-05-22T09:16:57.693Z,3.22
2019-05-22T09:19:29.407Z,4.50
2019-05-22T09:22:00.874Z,2.40
2019-05-22T09:24:33.981Z,3.17
2019-05-22T09:27:05.692Z,8.40
2019-05-22T09:29:36.206Z,6.62
2019-05-22T09:32:07.757Z,6.47
2019-05-22T09:34:39.435Z,2.87
2019-05-22T09:37:10.018Z,4.70
2019-05-22T09:39:41.387Z,9.20
2019-05-22T09:42:13.328Z,2.12
2019-05-22T09:44:44.457Z,5.22
2019-05-22T09:47:16.009Z,6.00
2019-05-22T09:49:49.564Z,2.75
2019-05-22T09:52:20.611Z,2.27
2019-05-22T09:54:51.633Z,2.40
2019-05-22T09:57:22.705Z,2.83
2019-05-22T09:59:53.081Z,4.42
2019-05-22T10:02:26.151Z,2.58
2019-05-22T10:04:57.096Z,4.95
2019-05-22T10:07:27.450Z,2.87
2019-05-22T10:09:57.692Z,3.45
2019-05-22T10:12:29.880Z,3.35
2019-05-22T10:15:01.549Z,3.25
2019-05-22T10:17:34.533Z,13.22
2019-05-22T10:20:08.975Z,5.28
2019-05-22T10:22:40.792Z,3.05
2019-05-22T10:25:16.491Z,4.17
2019-05-22T10:27:48.834Z,2.83
2019-05-22T10:30:24.934Z,2.02
2019-05-22T10:32:56.397Z,3.92
2019-05-22T10:35:29.121Z,2.30
2019-05-22T10:38:00.066Z,14.33
2019-05-22T10:40:30.774Z,4.05
2019-05-22T10:43:01.079Z,4.20
2019-05-22T10:45:32.246Z,10.53
2019-05-22T10:48:03.633Z,9.55
2019-05-22T10:50:34.949Z,4.53
2019-05-22T10:53:06.407Z,4.20
2019-05-22T10:55:37.685Z,4.35
2019-05-22T10:58:08.989Z,3.98
2019-05-22T11:00:39.979Z,7.47
2019-05-22T11:03:12.008Z,5.00
2019-05-22T11:05:44.266Z,5.53
2019-05-22T11:08:14.740Z,9.15
2019-05-22T11:10:46.315Z,3.60
2019-05-22T11:13:17.609Z,3.50
2019-05-22T11:15:48.671Z,5.25
2019-05-22T11:18:19.688Z,7.80
2019-05-22T11:20:51.448Z,2.47
2019-05-22T11:23:21.949Z,2.15
2019-05-22T11:25:52.553Z,2.52
2019-05-22T11:28:24.409Z,6.97
2019-05-22T11:30:56.469Z,1.50
2019-05-22T11:33:27.335Z,4.75
2019-05-22T11:35:58.865Z,3.00
2019-05-22T11:38:30.436Z,4.10
2019-05-22T11:41:01.407Z,2.90
2019-05-22T11:43:33.407Z,1.70
2019-05-22T11:46:05.009Z,2.83
2019-05-22T11:48:35.768Z,47.20
2019-05-22T11:51:06.934Z,13.15
2019-05-22T11:53:37.814Z,11.15
2019-05-22T11:56:08.253Z,9.15
2019-05-22T11:58:39.087Z,4.28
2019-05-22T12:01:09.668Z,6.37
2019-05-22T12:03:42.316Z,3.83
2019-05-22T12:06:14.435Z,9.23
2019-05-22T12:08:47.460Z,22.85
2019-05-22T12:11:20.371Z,9.73
2019-05-22T12:13:51.280Z,6.72
2019-05-22T12:16:24.647Z,5.53
2019-05-22T12:18:58.430Z,2.72
2019-05-22T12:21:26.945Z,5.53
2019-05-22T12:23:57.554Z,16.73
2019-05-22T12:26:28.691Z,1.60
2019-05-22T12:28:59.232Z,6.55
2019-05-22T12:31:30.108Z,3.45
2019-05-22T12:34:01.858Z,4.75
2019-05-22T12:36:33.963Z,5.42
2019-05-22T12:39:09.427Z,3.27
2019-05-22T12:41:40.842Z,9.60
2019-05-22T12:44:12.078Z,1.17
2019-05-22T12:46:43.703Z,5.65
2019-05-22T13:02:42.881Z,2.52
2019-05-22T13:05:14.610Z,2.77
2019-05-22T13:07:56.375Z,4.92
2019-05-22T13:10:29.055Z,2.45
2019-05-22T13:13:01.509Z,4.95
2019-05-22T13:15:33.106Z,2.90
2019-05-22T13:18:03.855Z,2.75
2019-05-22T13:20:43.129Z,2.22
2019-05-22T13:23:13.920Z,5.55
2019-05-22T13:25:45.977Z,3.92
2019-05-22T13:28:18.433Z,5.45
2019-05-22T13:30:52.820Z,3.67
2019-05-22T13:33:26.972Z,2.80
2019-05-22T13:35:57.839Z,2.72
2019-05-22T13:38:28.422Z,5.10
2019-05-22T13:41:00.303Z,2.35
2019-05-22T13:43:31.308Z,2.75
2019-05-22T13:46:02.747Z,5.95
2019-05-22T13:48:34.178Z,2.67
2019-05-22T13:51:07.458Z,5.87
2019-05-22T13:53:38.240Z,2.47
2019-05-22T13:56:11.265Z,4.78
2019-05-22T13:58:43.587Z,6.10
2019-05-22T14:01:14.532Z,3.92
2019-05-22T14:03:45.711Z,4.12
2019-05-22T14:06:16.104Z,8.15
2019-05-22T14:08:47.143Z,2.55
2019-05-22T14:11:19.597Z,3.27
2019-05-22T14:13:52.505Z,5.75
2019-05-22T14:16:23.198Z,4.78
2019-05-22T14:18:53.909Z,5.12
2019-05-22T14:21:24.692Z,3.47
2019-05-22T14:23:55.405Z,3.80
2019-05-22T14:26:29.585Z,9.05
2019-05-22T14:28:58.498Z,7.20
2019-05-22T14:31:28.785Z,8.98
2019-05-22T14:33:59.814Z,2.62
2019-05-22T14:36:31.253Z,7.47
2019-05-22T14:39:03.793Z,5.60
2019-05-22T14:41:34.319Z,2.90
2019-05-22T14:44:05.696Z,4.67
2019-05-22T14:46:36.010Z,3.42
2019-05-22T14:49:07.260Z,3.62
2019-05-22T14:51:38.647Z,3.80
2019-05-22T14:54:12.297Z,5.97
2019-05-22T14:56:45.901Z,1.87
2019-05-22T14:59:18.003Z,5.10
2019-05-22T15:01:52.038Z,3.72
2019-05-22T15:04:26.114Z,3.22
2019-05-22T15:06:57.376Z,3.90
2019-05-22T15:09:28.468Z,4.45
2019-05-22T15:12:02.605Z,11.50
2019-05-22T15:14:35.358Z,7.10
2019-05-22T15:17:07.909Z,3.35
2019-05-22T15:19:38.851Z,9.90
2019-05-22T15:22:09.661Z,5.53
2019-05-22T15:24:39.985Z,6.30
2019-05-22T15:27:12.526Z,1.72
2019-05-22T15:29:43.560Z,2.80
2019-05-22T15:32:16.387Z,2.02
2019-05-22T15:34:48.791Z,8.73
2019-05-22T15:37:26.545Z,2.25
2019-05-22T15:40:00.721Z,5.53
2019-05-22T15:45:07.347Z,4.30
2019-05-22T15:47:54.793Z,5.65
2019-05-22T15:50:17.608Z,3.58
2019-05-22T15:52:52.195Z,2.25
2019-05-22T15:55:25.495Z,9.88
2019-05-22T15:57:58.613Z,6.42
2019-05-22T16:00:35.535Z,6.97
2019-05-22T16:03:17.101Z,3.40
2019-05-22T16:05:49.444Z,1.65
2019-05-22T16:08:26.114Z,1.47
2019-05-22T16:11:00.792Z,3.40
2019-05-22T16:13:34.049Z,1.65
2019-05-22T16:16:06.489Z,1.47
2019-05-22T16:18:39.556Z,9.73
2019-05-22T16:21:12.383Z,2.77
2019-05-22T16:26:15.548Z,3.65
2019-05-22T16:28:47.987Z,2.70
2019-05-22T16:31:21.769Z,3.98
2019-05-22T16:33:53.666Z,2.98
2019-05-22T16:36:25.832Z,2.42
2019-05-22T16:38:58.081Z,2.67
2019-05-22T16:41:30.936Z,2.15
2019-05-22T16:44:01.316Z,3.42
2019-05-22T16:46:33.728Z,3.50
2019-05-22T16:49:05.483Z,3.22
2019-05-22T16:51:36.641Z,7.67
2019-05-22T16:54:09.634Z,2.12
2019-05-22T16:56:41.907Z,2.98
2019-05-22T16:59:14.742Z,2.50
2019-05-22T17:01:58.712Z,2.47
2019-05-22T17:10:25.739Z,1.72
2019-05-22T17:15:29.753Z,4.30
2019-05-22T17:18:00.260Z,2.92
2019-05-22T17:20:32.290Z,5.97
2019-05-22T17:23:02.958Z,4.65
2019-05-22T17:25:34.115Z,2.58
2019-05-22T17:28:06.603Z,6.53
2019-05-22T17:30:38.766Z,9.70
2019-05-22T17:33:11.250Z,3.05
2019-05-22T17:35:42.372Z,4.20
2019-05-22T17:38:15.791Z,4.37
2019-05-22T17:40:46.729Z,3.45
2019-05-22T17:43:18.554Z,3.72
2019-05-22T17:45:52.480Z,4.55
2019-05-22T17:48:24.371Z,7.37
2019-05-22T17:50:54.812Z,5.30
2019-05-22T17:53:25.749Z,7.80
2019-05-22T17:55:57.383Z,4.97
2019-05-22T17:58:30.173Z,5.12
2019-05-22T18:01:01.193Z,3.67
2019-05-22T18:03:32.004Z,3.75
2019-05-22T18:06:02.877Z,6.72
2019-05-22T18:08:33.462Z,6.65
2019-05-22T18:11:07.318Z,5.30
2019-05-22T18:13:49.442Z,3.60
2019-05-22T18:16:22.658Z,6.90
2019-05-22T18:18:52.970Z,4.83
2019-05-22T18:21:23.612Z,6.12
2019-05-22T18:23:54.223Z,8.95
2019-05-22T18:26:24.446Z,9.40
2019-05-22T18:28:55.295Z,9.73
2019-05-22T18:31:25.557Z,12.40
2019-05-22T18:33:56.049Z,8.13
2019-05-22T18:36:26.350Z,6.03
2019-05-22T18:38:56.685Z,10.30
2019-05-22T18:41:31.396Z,12.58
2019-05-22T18:44:03.846Z,9.43
2019-05-22T18:46:34.303Z,11.60
2019-05-22T18:49:04.924Z,8.33
2019-05-22T18:51:35.279Z,14.00
2019-05-22T18:54:05.947Z,11.15
2019-05-22T18:56:37.358Z,15.20
2019-05-22T18:59:10.141Z,15.30
2019-05-22T19:01:41.286Z,13.85
2019-05-22T19:04:12.003Z,15.40
2019-05-22T19:06:43.442Z,11.15
2019-05-22T19:09:16.125Z,20.37
2019-05-22T19:11:46.888Z,16.57
2019-05-22T19:14:19.025Z,11.20
2019-05-22T19:16:49.299Z,13.68
2019-05-22T19:19:20.057Z,15.30
2019-05-22T19:21:51.420Z,15.45
2019-05-22T19:24:23.388Z,17.35
2019-05-22T19:26:54.312Z,16.42
2019-05-22T19:29:24.694Z,29.65
2019-05-22T19:31:55.148Z,18.10
2019-05-22T19:34:25.725Z,12.60
2019-05-22T19:36:55.949Z,20.08
2019-05-22T19:39:26.510Z,13.78
2019-05-22T19:42:02.953Z,28.55
2019-05-22T19:44:30.008Z,22.48
2019-05-22T19:47:01.529Z,12.45
2019-05-22T19:49:32.658Z,11.25
2019-05-22T19:52:04.311Z,22.70
2019-05-22T19:54:36.803Z,14.20
2019-05-22T19:57:08.920Z,20.95
2019-05-22T19:59:39.805Z,12.15
2019-05-22T20:02:12.377Z,17.17
2019-05-22T20:04:43.623Z,12.93
2019-05-22T20:07:14.385Z,12.18
2019-05-22T20:09:44.659Z,15.78
2019-05-22T20:12:15.673Z,13.45
2019-05-22T20:14:47.288Z,10.38
2019-05-22T20:17:17.941Z,13.10
2019-05-22T20:19:49.142Z,11.08
2019-05-22T20:22:19.830Z,15.95
2019-05-22T20:24:50.432Z,11.12
2019-05-22T20:27:21.762Z,14.05
2019-05-22T20:29:53.090Z,17.45
2019-05-22T20:32:25.290Z,12.25
2019-05-22T20:34:55.705Z,18.25
2019-05-22T20:37:26.860Z,13.20
2019-05-22T20:39:59.568Z,15.98
2019-05-22T20:42:32.191Z,18.87
2019-05-22T20:45:03.053Z,12.75
2019-05-22T20:47:35.780Z,16.20
2019-05-22T20:50:09.149Z,17.60
2019-05-22T20:52:40.121Z,15.15
2019-05-22T20:55:12.349Z,13.85
2019-05-22T20:57:43.877Z,13.65
2019-05-22T21:00:17.308Z,14.03
2019-05-22T21:02:48.746Z,12.65
2019-05-22T21:05:23.206Z,15.43
2019-05-22T21:07:57.317Z,19.07
2019-05-22T21:10:30.372Z,20.75
2019-05-22T21:13:02.624Z,20.12
2019-05-22T21:15:34.188Z,19.87
2019-05-22T21:18:08.321Z,13.30
2019-05-22T21:23:11.275Z,16.70
2019-05-22T21:25:42.438Z,15.72
2019-05-22T21:28:13.564Z,18.12
2019-05-22T21:30:45.493Z,13.62
2019-05-22T21:33:17.473Z,12.75
2019-05-22T21:35:48.610Z,14.40
2019-05-22T21:38:19.719Z,18.15
2019-05-22T21:40:54.071Z,11.15
2019-05-22T21:43:24.848Z,13.68
2019-05-22T21:45:55.235Z,15.70
2019-05-22T21:48:30.531Z,14.50
2019-05-22T21:51:02.618Z,15.10
2019-05-22T21:53:35.054Z,17.55
2019-05-22T21:56:06.929Z,15.98
2019-05-22T21:58:39.152Z,16.70
2019-05-22T22:01:12.100Z,16.12
2019-05-22T22:03:54.875Z,13.95
2019-05-22T22:06:26.788Z,15.05
2019-05-22T22:08:57.010Z,15.65
2019-05-22T22:11:31.025Z,13.78
2019-05-22T22:14:03.520Z,15.15
2019-05-22T22:16:34.841Z,18.17
2019-05-22T22:19:07.365Z,21.82
2019-05-22T22:21:39.646Z,17.07
2019-05-22T22:24:10.986Z,19.17
2019-05-22T22:26:41.908Z,18.02
2019-05-22T22:29:15.342Z,19.27
2019-05-22T22:31:49.158Z,21.67
2019-05-22T22:34:27.934Z,20.32
2019-05-22T22:36:59.357Z,21.45
2019-05-22T22:39:32.133Z,20.50
2019-05-22T22:42:04.596Z,20.85
2019-05-22T22:44:36.171Z,22.05
2019-05-22T22:47:11.489Z,19.90
2019-05-22T22:49:42.961Z,25.55
2019-05-22T22:52:15.463Z,24.67
2019-05-22T22:54:47.946Z,24.80
2019-05-22T22:57:18.922Z,25.60
2019-05-22T22:59:49.163Z,26.35
2019-05-22T23:02:22.930Z,23.05
2019-05-22T23:04:55.445Z,24.15
2019-05-22T23:07:30.646Z,21.30
2019-05-22T23:10:01.996Z,24.47
2019-05-22T23:12:35.600Z,20.92
2019-05-22T23:15:07.917Z,22.40
2019-05-22T23:17:38.807Z,21.82
2019-05-22T23:20:08.058Z,21.73
2019-05-22T23:22:38.153Z,21.65
2019-05-22T23:25:10.466Z,36.68
2019-05-22T23:27:41.561Z,28.57
2019-05-22T23:30:14.034Z,26.82
2019-05-22T23:32:45.750Z,28.35
2019-05-22T23:35:20.305Z,30.35
2019-05-22T23:37:52.329Z,27.07
2019-05-22T23:40:28.150Z,30.12
2019-05-22T23:43:02.065Z,26.30
2019-05-22T23:45:34.068Z,28.92
2019-05-22T23:48:14.546Z,30.95
2019-05-22T23:50:47.352Z,28.57
2019-05-22T23:53:18.757Z,33.18
2019-05-22T23:55:50.314Z,31.60
2019-05-22T23:58:23.308Z,28.90
